sensor_id;sensor_type;location;lat;lon;timestamp;P1;durP1;ratioP1;P2;durP2;ratioP2
20159;SDS011;50187;50.492;12.134;2023-07-02T00:00:03;1.37;;;1.37;;
20159;SDS011;50187;50.492;12.134;2023-07-02T00:02:34;1.43;;;1.40;;
20159;SDS011;50187;50.492;12.134;2023-07-02T00:05:01;1.53;;;1.43;;
20159;SDS011;50187;50.492;12.134;2023-07-02T00:07:28;1.53;;;1.43;;
20159;SDS011;50187;50.492;12.134;2023-07-02T00:09:55;1.30;;;1.30;;
20159;SDS011;50187;50.492;12.134;2023-07-02T00:12:21;1.50;;;1.40;;
20159;SDS011;50187;50.492;12.134;2023-07-02T00:14:48;1.60;;;1.50;;
20159;SDS011;50187;50.492;12.134;2023-07-02T00:17:15;1.13;;;1.13;;
20159;SDS011;50187;50.492;12.134;2023-07-02T00:19:41;1.10;;;1.10;;
20159;SDS011;50187;50.492;12.134;2023-07-02T00:22:08;1.40;;;1.33;;
20159;SDS011;50187;50.492;12.134;2023-07-02T00:24:35;1.30;;;1.30;;
20159;SDS011;50187;50.492;12.134;2023-07-02T00:27:03;1.13;;;1.13;;
20159;SDS011;50187;50.492;12.134;2023-07-02T00:29:30;1.60;;;1.50;;
20159;SDS011;50187;50.492;12.134;2023-07-02T00:31:56;1.20;;;1.20;;
20159;SDS011;50187;50.492;12.134;2023-07-02T00:34:23;1.33;;;1.13;;
20159;SDS011;50187;50.492;12.134;2023-07-02T00:36:50;1.50;;;1.40;;
20159;SDS011;50187;50.492;12.134;2023-07-02T00:39:16;1.53;;;1.43;;
20159;SDS011;50187;50.492;12.134;2023-07-02T00:41:44;1.27;;;1.27;;
20159;SDS011;50187;50.492;12.134;2023-07-02T00:44:13;0.90;;;0.90;;
20159;SDS011;50187;50.492;12.134;2023-07-02T00:46:40;1.33;;;1.23;;
20159;SDS011;50187;50.492;12.134;2023-07-02T00:49:07;1.20;;;1.20;;
20159;SDS011;50187;50.492;12.134;2023-07-02T00:51:34;1.23;;;1.20;;
20159;SDS011;50187;50.492;12.134;2023-07-02T00:54:00;1.27;;;1.27;;
20159;SDS011;50187;50.492;12.134;2023-07-02T00:56:27;1.20;;;1.20;;
20159;SDS011;50187;50.492;12.134;2023-07-02T00:58:54;1.43;;;1.37;;
20159;SDS011;50187;50.492;12.134;2023-07-02T01:01:26;1.27;;;1.17;;
20159;SDS011;50187;50.492;12.134;2023-07-02T01:03:58;1.23;;;1.23;;
20159;SDS011;50187;50.492;12.134;2023-07-02T01:06:31;1.40;;;1.30;;
20159;SDS011;50187;50.492;12.134;2023-07-02T01:09:03;1.43;;;1.33;;
20159;SDS011;50187;50.492;12.134;2023-07-02T01:11:51;1.33;;;1.33;;
20159;SDS011;50187;50.492;12.134;2023-07-02T01:14:25;1.23;;;1.23;;
20159;SDS011;50187;50.492;12.134;2023-07-02T01:16:54;1.30;;;1.27;;
20159;SDS011;50187;50.492;12.134;2023-07-02T01:19:29;1.00;;;1.00;;
20159;SDS011;50187;50.492;12.134;2023-07-02T01:21:59;1.30;;;1.20;;
20159;SDS011;50187;50.492;12.134;2023-07-02T01:24:26;1.20;;;1.20;;
20159;SDS011;50187;50.492;12.134;2023-07-02T01:26:54;1.10;;;1.10;;
20159;SDS011;50187;50.492;12.134;2023-07-02T01:29:22;1.03;;;1.03;;
20159;SDS011;50187;50.492;12.134;2023-07-02T01:31:49;1.03;;;1.03;;
20159;SDS011;50187;50.492;12.134;2023-07-02T01:34:15;1.17;;;1.13;;
20159;SDS011;50187;50.492;12.134;2023-07-02T01:36:42;1.20;;;1.20;;
20159;SDS011;50187;50.492;12.134;2023-07-02T01:39:09;1.23;;;1.20;;
20159;SDS011;50187;50.492;12.134;2023-07-02T01:41:49;1.03;;;1.03;;
20159;SDS011;50187;50.492;12.134;2023-07-02T01:44:20;1.30;;;1.30;;
20159;SDS011;50187;50.492;12.134;2023-07-02T01:46:47;1.27;;;1.27;;
20159;SDS011;50187;50.492;12.134;2023-07-02T01:49:15;1.10;;;1.10;;
20159;SDS011;50187;50.492;12.134;2023-07-02T01:51:49;1.13;;;1.13;;
20159;SDS011;50187;50.492;12.134;2023-07-02T01:54:17;1.20;;;1.20;;
20159;SDS011;50187;50.492;12.134;2023-07-02T01:56:44;1.13;;;1.10;;
20159;SDS011;50187;50.492;12.134;2023-07-02T01:59:11;1.13;;;1.10;;
20159;SDS011;50187;50.492;12.134;2023-07-02T02:01:39;1.30;;;1.20;;
20159;SDS011;50187;50.492;12.134;2023-07-02T02:04:09;1.03;;;1.03;;
20159;SDS011;50187;50.492;12.134;2023-07-02T02:06:37;1.00;;;1.00;;
20159;SDS011;50187;50.492;12.134;2023-07-02T02:09:05;1.00;;;1.00;;
20159;SDS011;50187;50.492;12.134;2023-07-02T02:11:37;1.40;;;1.30;;
20159;SDS011;50187;50.492;12.134;2023-07-02T02:14:06;1.10;;;1.10;;
20159;SDS011;50187;50.492;12.134;2023-07-02T02:16:32;1.20;;;1.10;;
20159;SDS011;50187;50.492;12.134;2023-07-02T02:19:02;0.90;;;0.90;;
20159;SDS011;50187;50.492;12.134;2023-07-02T02:21:29;0.90;;;0.90;;
20159;SDS011;50187;50.492;12.134;2023-07-02T02:23:56;1.13;;;1.13;;
20159;SDS011;50187;50.492;12.134;2023-07-02T02:26:23;1.40;;;1.30;;
20159;SDS011;50187;50.492;12.134;2023-07-02T02:28:52;1.10;;;1.10;;
20159;SDS011;50187;50.492;12.134;2023-07-02T02:31:19;1.37;;;1.27;;
20159;SDS011;50187;50.492;12.134;2023-07-02T02:33:46;1.17;;;1.17;;
20159;SDS011;50187;50.492;12.134;2023-07-02T02:36:13;1.07;;;1.07;;
20159;SDS011;50187;50.492;12.134;2023-07-02T02:38:40;1.17;;;1.17;;
20159;SDS011;50187;50.492;12.134;2023-07-02T02:41:07;1.27;;;1.20;;
20159;SDS011;50187;50.492;12.134;2023-07-02T02:43:43;1.03;;;1.03;;
20159;SDS011;50187;50.492;12.134;2023-07-02T02:46:19;1.10;;;1.10;;
20159;SDS011;50187;50.492;12.134;2023-07-02T02:48:48;1.27;;;1.27;;
20159;SDS011;50187;50.492;12.134;2023-07-02T02:51:15;1.17;;;1.07;;
20159;SDS011;50187;50.492;12.134;2023-07-02T02:53:42;1.17;;;1.13;;
20159;SDS011;50187;50.492;12.134;2023-07-02T02:56:09;1.30;;;1.30;;
20159;SDS011;50187;50.492;12.134;2023-07-02T02:58:35;1.10;;;1.10;;
20159;SDS011;50187;50.492;12.134;2023-07-02T03:01:02;1.13;;;1.13;;
20159;SDS011;50187;50.492;12.134;2023-07-02T03:03:41;0.97;;;0.97;;
20159;SDS011;50187;50.492;12.134;2023-07-02T03:06:15;1.20;;;1.20;;
20159;SDS011;50187;50.492;12.134;2023-07-02T03:08:42;1.07;;;1.07;;
20159;SDS011;50187;50.492;12.134;2023-07-02T03:11:09;0.90;;;0.90;;
20159;SDS011;50187;50.492;12.134;2023-07-02T03:13:36;1.57;;;1.37;;
20159;SDS011;50187;50.492;12.134;2023-07-02T03:16:03;1.03;;;1.00;;
20159;SDS011;50187;50.492;12.134;2023-07-02T03:18:30;1.10;;;1.10;;
20159;SDS011;50187;50.492;12.134;2023-07-02T03:20:57;1.00;;;1.00;;
20159;SDS011;50187;50.492;12.134;2023-07-02T03:23:24;1.30;;;1.20;;
20159;SDS011;50187;50.492;12.134;2023-07-02T03:25:51;1.10;;;1.10;;
20159;SDS011;50187;50.492;12.134;2023-07-02T03:28:18;1.90;;;1.10;;
20159;SDS011;50187;50.492;12.134;2023-07-02T03:30:44;1.13;;;1.13;;
20159;SDS011;50187;50.492;12.134;2023-07-02T03:33:11;1.30;;;1.30;;
20159;SDS011;50187;50.492;12.134;2023-07-02T03:35:38;0.90;;;0.90;;
20159;SDS011;50187;50.492;12.134;2023-07-02T03:38:05;1.33;;;1.27;;
20159;SDS011;50187;50.492;12.134;2023-07-02T03:40:35;1.17;;;1.17;;
20159;SDS011;50187;50.492;12.134;2023-07-02T03:43:02;0.93;;;0.93;;
20159;SDS011;50187;50.492;12.134;2023-07-02T03:45:28;1.10;;;1.10;;
20159;SDS011;50187;50.492;12.134;2023-07-02T03:47:56;1.20;;;1.20;;
20159;SDS011;50187;50.492;12.134;2023-07-02T03:50:22;1.40;;;1.40;;
20159;SDS011;50187;50.492;12.134;2023-07-02T03:52:49;1.10;;;1.10;;
20159;SDS011;50187;50.492;12.134;2023-07-02T03:55:16;1.10;;;1.07;;
20159;SDS011;50187;50.492;12.134;2023-07-02T03:57:43;1.03;;;1.03;;
20159;SDS011;50187;50.492;12.134;2023-07-02T04:00:10;1.40;;;1.30;;
20159;SDS011;50187;50.492;12.134;2023-07-02T04:02:40;1.10;;;1.10;;
20159;SDS011;50187;50.492;12.134;2023-07-02T04:05:08;1.30;;;1.13;;
20159;SDS011;50187;50.492;12.134;2023-07-02T04:07:35;1.20;;;1.20;;
20159;SDS011;50187;50.492;12.134;2023-07-02T04:10:02;1.00;;;1.00;;
20159;SDS011;50187;50.492;12.134;2023-07-02T04:12:28;1.03;;;1.03;;
20159;SDS011;50187;50.492;12.134;2023-07-02T04:14:56;0.97;;;0.97;;
20159;SDS011;50187;50.492;12.134;2023-07-02T04:17:23;0.80;;;0.80;;
20159;SDS011;50187;50.492;12.134;2023-07-02T04:19:49;1.27;;;1.20;;
20159;SDS011;50187;50.492;12.134;2023-07-02T04:22:16;1.17;;;1.17;;
20159;SDS011;50187;50.492;12.134;2023-07-02T04:24:44;1.13;;;1.13;;
20159;SDS011;50187;50.492;12.134;2023-07-02T04:27:14;0.80;;;0.80;;
20159;SDS011;50187;50.492;12.134;2023-07-02T04:30:04;1.07;;;1.07;;
20159;SDS011;50187;50.492;12.134;2023-07-02T04:32:32;1.03;;;1.03;;
20159;SDS011;50187;50.492;12.134;2023-07-02T04:34:59;1.10;;;1.10;;
20159;SDS011;50187;50.492;12.134;2023-07-02T04:37:26;0.80;;;0.80;;
20159;SDS011;50187;50.492;12.134;2023-07-02T04:39:54;1.13;;;1.13;;
20159;SDS011;50187;50.492;12.134;2023-07-02T04:42:21;0.80;;;0.80;;
20159;SDS011;50187;50.492;12.134;2023-07-02T04:44:47;1.40;;;1.30;;
20159;SDS011;50187;50.492;12.134;2023-07-02T04:47:14;0.80;;;0.80;;
20159;SDS011;50187;50.492;12.134;2023-07-02T04:49:41;1.37;;;1.37;;
20159;SDS011;50187;50.492;12.134;2023-07-02T04:52:08;1.40;;;1.20;;
20159;SDS011;50187;50.492;12.134;2023-07-02T04:54:34;1.10;;;1.10;;
20159;SDS011;50187;50.492;12.134;2023-07-02T04:57:01;1.17;;;1.17;;
20159;SDS011;50187;50.492;12.134;2023-07-02T04:59:28;0.93;;;0.93;;
20159;SDS011;50187;50.492;12.134;2023-07-02T05:01:55;1.60;;;1.50;;
20159;SDS011;50187;50.492;12.134;2023-07-02T05:04:22;1.20;;;1.10;;
20159;SDS011;50187;50.492;12.134;2023-07-02T05:06:51;0.93;;;0.93;;
20159;SDS011;50187;50.492;12.134;2023-07-02T05:09:17;0.90;;;0.90;;
20159;SDS011;50187;50.492;12.134;2023-07-02T05:11:44;0.90;;;0.90;;
20159;SDS011;50187;50.492;12.134;2023-07-02T05:14:11;0.90;;;0.90;;
20159;SDS011;50187;50.492;12.134;2023-07-02T05:16:38;1.00;;;1.00;;
20159;SDS011;50187;50.492;12.134;2023-07-02T05:19:05;1.27;;;1.27;;
20159;SDS011;50187;50.492;12.134;2023-07-02T05:21:32;1.07;;;1.07;;
20159;SDS011;50187;50.492;12.134;2023-07-02T05:23:59;1.10;;;1.10;;
20159;SDS011;50187;50.492;12.134;2023-07-02T05:26:25;1.00;;;1.00;;
20159;SDS011;50187;50.492;12.134;2023-07-02T05:28:53;1.10;;;1.10;;
20159;SDS011;50187;50.492;12.134;2023-07-02T05:31:20;1.20;;;1.20;;
20159;SDS011;50187;50.492;12.134;2023-07-02T05:33:48;1.10;;;1.10;;
20159;SDS011;50187;50.492;12.134;2023-07-02T05:36:15;1.20;;;1.20;;
20159;SDS011;50187;50.492;12.134;2023-07-02T05:38:42;1.00;;;1.00;;
20159;SDS011;50187;50.492;12.134;2023-07-02T05:41:08;1.00;;;1.00;;
20159;SDS011;50187;50.492;12.134;2023-07-02T05:43:35;1.00;;;1.00;;
20159;SDS011;50187;50.492;12.134;2023-07-02T05:46:02;1.20;;;1.20;;
20159;SDS011;50187;50.492;12.134;2023-07-02T05:48:29;1.00;;;1.00;;
20159;SDS011;50187;50.492;12.134;2023-07-02T05:50:55;1.10;;;1.10;;
20159;SDS011;50187;50.492;12.134;2023-07-02T05:53:22;1.50;;;1.10;;
20159;SDS011;50187;50.492;12.134;2023-07-02T05:55:49;1.27;;;1.27;;
20159;SDS011;50187;50.492;12.134;2023-07-02T05:58:15;1.00;;;1.00;;
20159;SDS011;50187;50.492;12.134;2023-07-02T06:00:42;1.03;;;1.03;;
20159;SDS011;50187;50.492;12.134;2023-07-02T06:03:16;1.00;;;1.00;;
20159;SDS011;50187;50.492;12.134;2023-07-02T06:05:47;0.93;;;0.93;;
20159;SDS011;50187;50.492;12.134;2023-07-02T06:08:15;1.10;;;1.10;;
20159;SDS011;50187;50.492;12.134;2023-07-02T06:10:43;1.00;;;1.00;;
20159;SDS011;50187;50.492;12.134;2023-07-02T06:13:13;0.83;;;0.83;;
20159;SDS011;50187;50.492;12.134;2023-07-02T06:15:42;1.07;;;1.07;;
20159;SDS011;50187;50.492;12.134;2023-07-02T06:18:09;1.00;;;1.00;;
20159;SDS011;50187;50.492;12.134;2023-07-02T06:20:36;0.87;;;0.87;;
20159;SDS011;50187;50.492;12.134;2023-07-02T06:23:03;1.40;;;1.30;;
20159;SDS011;50187;50.492;12.134;2023-07-02T06:25:30;1.10;;;1.10;;
20159;SDS011;50187;50.492;12.134;2023-07-02T06:27:58;1.00;;;1.00;;
20159;SDS011;50187;50.492;12.134;2023-07-02T06:30:26;1.23;;;1.13;;
20159;SDS011;50187;50.492;12.134;2023-07-02T06:32:53;1.00;;;1.00;;
20159;SDS011;50187;50.492;12.134;2023-07-02T06:35:21;1.10;;;1.10;;
20159;SDS011;50187;50.492;12.134;2023-07-02T06:37:48;1.00;;;1.00;;
20159;SDS011;50187;50.492;12.134;2023-07-02T06:40:15;1.20;;;1.20;;
20159;SDS011;50187;50.492;12.134;2023-07-02T06:42:41;1.00;;;1.00;;
20159;SDS011;50187;50.492;12.134;2023-07-02T06:45:08;1.23;;;1.23;;
20159;SDS011;50187;50.492;12.134;2023-07-02T06:47:35;1.27;;;0.90;;
20159;SDS011;50187;50.492;12.134;2023-07-02T06:50:02;1.10;;;1.10;;
20159;SDS011;50187;50.492;12.134;2023-07-02T06:52:29;1.10;;;1.10;;
20159;SDS011;50187;50.492;12.134;2023-07-02T06:54:56;1.17;;;1.17;;
20159;SDS011;50187;50.492;12.134;2023-07-02T06:57:23;1.10;;;1.10;;
20159;SDS011;50187;50.492;12.134;2023-07-02T06:59:57;1.20;;;1.20;;
20159;SDS011;50187;50.492;12.134;2023-07-02T07:02:32;1.10;;;1.10;;
20159;SDS011;50187;50.492;12.134;2023-07-02T07:04:59;1.07;;;1.07;;
20159;SDS011;50187;50.492;12.134;2023-07-02T07:07:27;1.30;;;1.20;;
20159;SDS011;50187;50.492;12.134;2023-07-02T07:09:54;1.20;;;1.20;;
20159;SDS011;50187;50.492;12.134;2023-07-02T07:12:20;1.03;;;1.03;;
20159;SDS011;50187;50.492;12.134;2023-07-02T07:14:47;1.00;;;1.00;;
20159;SDS011;50187;50.492;12.134;2023-07-02T07:17:14;1.03;;;1.03;;
20159;SDS011;50187;50.492;12.134;2023-07-02T07:19:41;1.10;;;1.10;;
20159;SDS011;50187;50.492;12.134;2023-07-02T07:22:07;1.27;;;1.27;;
20159;SDS011;50187;50.492;12.134;2023-07-02T07:24:34;0.97;;;0.97;;
20159;SDS011;50187;50.492;12.134;2023-07-02T07:27:03;1.13;;;1.13;;
20159;SDS011;50187;50.492;12.134;2023-07-02T07:29:30;0.87;;;0.87;;
20159;SDS011;50187;50.492;12.134;2023-07-02T07:31:56;0.97;;;0.97;;
20159;SDS011;50187;50.492;12.134;2023-07-02T07:34:23;1.13;;;1.13;;
20159;SDS011;50187;50.492;12.134;2023-07-02T07:36:50;1.20;;;1.20;;
20159;SDS011;50187;50.492;12.134;2023-07-02T07:39:17;1.07;;;1.07;;
20159;SDS011;50187;50.492;12.134;2023-07-02T07:41:48;1.10;;;1.10;;
20159;SDS011;50187;50.492;12.134;2023-07-02T07:44:14;0.97;;;0.97;;
20159;SDS011;50187;50.492;12.134;2023-07-02T07:46:41;1.10;;;1.10;;
20159;SDS011;50187;50.492;12.134;2023-07-02T07:49:09;1.03;;;1.03;;
20159;SDS011;50187;50.492;12.134;2023-07-02T07:51:35;1.10;;;1.10;;
20159;SDS011;50187;50.492;12.134;2023-07-02T07:54:02;0.97;;;0.97;;
20159;SDS011;50187;50.492;12.134;2023-07-02T07:56:29;1.00;;;1.00;;
20159;SDS011;50187;50.492;12.134;2023-07-02T07:58:56;1.00;;;1.00;;
20159;SDS011;50187;50.492;12.134;2023-07-02T08:01:25;1.00;;;1.00;;
20159;SDS011;50187;50.492;12.134;2023-07-02T08:03:53;0.90;;;0.90;;
20159;SDS011;50187;50.492;12.134;2023-07-02T08:06:19;1.17;;;1.10;;
20159;SDS011;50187;50.492;12.134;2023-07-02T08:08:46;1.10;;;1.00;;
20159;SDS011;50187;50.492;12.134;2023-07-02T08:11:13;1.00;;;0.90;;
20159;SDS011;50187;50.492;12.134;2023-07-02T08:13:40;1.03;;;1.03;;
20159;SDS011;50187;50.492;12.134;2023-07-02T08:16:07;1.30;;;1.20;;
20159;SDS011;50187;50.492;12.134;2023-07-02T08:18:35;1.20;;;1.10;;
20159;SDS011;50187;50.492;12.134;2023-07-02T08:21:02;1.10;;;1.10;;
20159;SDS011;50187;50.492;12.134;2023-07-02T08:23:32;1.00;;;1.00;;
20159;SDS011;50187;50.492;12.134;2023-07-02T08:25:59;1.00;;;1.00;;
20159;SDS011;50187;50.492;12.134;2023-07-02T08:28:26;1.20;;;1.20;;
20159;SDS011;50187;50.492;12.134;2023-07-02T08:30:53;0.90;;;0.90;;
20159;SDS011;50187;50.492;12.134;2023-07-02T08:33:20;0.90;;;0.90;;
20159;SDS011;50187;50.492;12.134;2023-07-02T08:35:47;1.00;;;1.00;;
20159;SDS011;50187;50.492;12.134;2023-07-02T08:38:14;1.30;;;1.30;;
20159;SDS011;50187;50.492;12.134;2023-07-02T08:40:41;1.00;;;1.00;;
20159;SDS011;50187;50.492;12.134;2023-07-02T08:43:08;1.20;;;1.20;;
20159;SDS011;50187;50.492;12.134;2023-07-02T08:45:35;1.10;;;1.10;;
20159;SDS011;50187;50.492;12.134;2023-07-02T08:48:02;1.23;;;1.23;;
20159;SDS011;50187;50.492;12.134;2023-07-02T08:50:30;1.27;;;1.27;;
20159;SDS011;50187;50.492;12.134;2023-07-02T08:53:00;1.50;;;1.17;;
20159;SDS011;50187;50.492;12.134;2023-07-02T08:55:26;1.00;;;1.00;;
20159;SDS011;50187;50.492;12.134;2023-07-02T08:57:56;0.90;;;0.90;;
20159;SDS011;50187;50.492;12.134;2023-07-02T09:00:26;1.40;;;1.30;;
20159;SDS011;50187;50.492;12.134;2023-07-02T09:02:53;1.20;;;1.17;;
20159;SDS011;50187;50.492;12.134;2023-07-02T09:05:20;0.83;;;0.83;;
20159;SDS011;50187;50.492;12.134;2023-07-02T09:07:48;2.60;;;1.10;;
20159;SDS011;50187;50.492;12.134;2023-07-02T09:10:26;1.20;;;1.20;;
20159;SDS011;50187;50.492;12.134;2023-07-02T09:13:04;1.40;;;1.30;;
20159;SDS011;50187;50.492;12.134;2023-07-02T09:15:37;1.00;;;1.00;;
20159;SDS011;50187;50.492;12.134;2023-07-02T09:18:27;1.20;;;1.20;;
20159;SDS011;50187;50.492;12.134;2023-07-02T09:20:55;1.20;;;1.20;;
20159;SDS011;50187;50.492;12.134;2023-07-02T09:23:31;0.97;;;0.97;;
20159;SDS011;50187;50.492;12.134;2023-07-02T09:26:02;1.00;;;1.00;;
20159;SDS011;50187;50.492;12.134;2023-07-02T09:28:29;1.17;;;1.17;;
20159;SDS011;50187;50.492;12.134;2023-07-02T09:30:56;1.23;;;1.20;;
20159;SDS011;50187;50.492;12.134;2023-07-02T09:33:24;1.00;;;1.00;;
20159;SDS011;50187;50.492;12.134;2023-07-02T09:35:52;1.10;;;1.10;;
20159;SDS011;50187;50.492;12.134;2023-07-02T09:38:19;1.20;;;1.20;;
20159;SDS011;50187;50.492;12.134;2023-07-02T09:40:47;1.20;;;1.20;;
20159;SDS011;50187;50.492;12.134;2023-07-02T09:43:17;1.00;;;1.00;;
20159;SDS011;50187;50.492;12.134;2023-07-02T09:45:48;1.20;;;1.10;;
20159;SDS011;50187;50.492;12.134;2023-07-02T09:48:20;2.00;;;1.10;;
20159;SDS011;50187;50.492;12.134;2023-07-02T09:50:50;1.10;;;1.10;;
20159;SDS011;50187;50.492;12.134;2023-07-02T09:53:18;1.30;;;1.20;;
20159;SDS011;50187;50.492;12.134;2023-07-02T09:55:44;1.23;;;1.23;;
20159;SDS011;50187;50.492;12.134;2023-07-02T09:58:11;1.20;;;1.20;;
20159;SDS011;50187;50.492;12.134;2023-07-02T10:00:38;1.00;;;1.00;;
20159;SDS011;50187;50.492;12.134;2023-07-02T10:03:07;1.17;;;1.10;;
20159;SDS011;50187;50.492;12.134;2023-07-02T10:05:34;1.20;;;1.10;;
20159;SDS011;50187;50.492;12.134;2023-07-02T10:08:14;1.23;;;1.00;;
20159;SDS011;50187;50.492;12.134;2023-07-02T10:10:47;1.20;;;1.20;;
20159;SDS011;50187;50.492;12.134;2023-07-02T10:13:26;1.30;;;1.20;;
20159;SDS011;50187;50.492;12.134;2023-07-02T10:16:00;1.60;;;1.50;;
20159;SDS011;50187;50.492;12.134;2023-07-02T10:18:30;1.27;;;1.27;;
20159;SDS011;50187;50.492;12.134;2023-07-02T10:20:57;1.90;;;1.10;;
20159;SDS011;50187;50.492;12.134;2023-07-02T10:23:33;1.60;;;1.50;;
20159;SDS011;50187;50.492;12.134;2023-07-02T10:26:13;1.60;;;1.50;;
20159;SDS011;50187;50.492;12.134;2023-07-02T10:28:43;5.13;;;1.80;;
20159;SDS011;50187;50.492;12.134;2023-07-02T10:31:22;2.13;;;2.00;;
20159;SDS011;50187;50.492;12.134;2023-07-02T10:33:50;2.03;;;1.90;;
20159;SDS011;50187;50.492;12.134;2023-07-02T10:36:18;2.80;;;2.50;;
20159;SDS011;50187;50.492;12.134;2023-07-02T10:38:47;2.20;;;2.00;;
20159;SDS011;50187;50.492;12.134;2023-07-02T10:41:27;3.23;;;2.13;;
20159;SDS011;50187;50.492;12.134;2023-07-02T10:44:05;2.03;;;1.93;;
20159;SDS011;50187;50.492;12.134;2023-07-02T10:46:33;1.93;;;1.83;;
20159;SDS011;50187;50.492;12.134;2023-07-02T10:49:00;2.77;;;2.23;;
20159;SDS011;50187;50.492;12.134;2023-07-02T10:51:27;3.07;;;2.50;;
20159;SDS011;50187;50.492;12.134;2023-07-02T10:53:56;2.43;;;2.27;;
20159;SDS011;50187;50.492;12.134;2023-07-02T10:56:27;2.60;;;2.37;;
20159;SDS011;50187;50.492;12.134;2023-07-02T10:58:54;2.60;;;2.37;;
20159;SDS011;50187;50.492;12.134;2023-07-02T11:01:21;3.20;;;2.07;;
20159;SDS011;50187;50.492;12.134;2023-07-02T11:03:56;2.63;;;2.40;;
20159;SDS011;50187;50.492;12.134;2023-07-02T11:06:34;2.50;;;2.30;;
20159;SDS011;50187;50.492;12.134;2023-07-02T11:09:01;2.70;;;2.40;;
20159;SDS011;50187;50.492;12.134;2023-07-02T11:11:30;2.33;;;2.00;;
20159;SDS011;50187;50.492;12.134;2023-07-02T11:13:57;2.97;;;2.60;;
20159;SDS011;50187;50.492;12.134;2023-07-02T11:16:24;2.83;;;2.53;;
20159;SDS011;50187;50.492;12.134;2023-07-02T11:19:06;2.47;;;2.27;;
20159;SDS011;50187;50.492;12.134;2023-07-02T11:21:35;2.90;;;2.47;;
20159;SDS011;50187;50.492;12.134;2023-07-02T11:24:03;2.40;;;2.20;;
20159;SDS011;50187;50.492;12.134;2023-07-02T11:26:39;2.20;;;2.10;;
20159;SDS011;50187;50.492;12.134;2023-07-02T11:29:11;2.30;;;2.10;;
20159;SDS011;50187;50.492;12.134;2023-07-02T11:31:44;2.23;;;2.07;;
20159;SDS011;50187;50.492;12.134;2023-07-02T11:34:17;2.63;;;2.43;;
20159;SDS011;50187;50.492;12.134;2023-07-02T11:36:50;3.43;;;2.30;;
20159;SDS011;50187;50.492;12.134;2023-07-02T11:39:19;2.13;;;2.03;;
20159;SDS011;50187;50.492;12.134;2023-07-02T11:41:49;2.57;;;2.37;;
20159;SDS011;50187;50.492;12.134;2023-07-02T11:44:16;2.97;;;2.50;;
20159;SDS011;50187;50.492;12.134;2023-07-02T11:46:44;2.20;;;2.10;;
20159;SDS011;50187;50.492;12.134;2023-07-02T11:49:14;2.23;;;2.13;;
20159;SDS011;50187;50.492;12.134;2023-07-02T11:51:42;2.70;;;2.50;;
20159;SDS011;50187;50.492;12.134;2023-07-02T11:54:16;1.90;;;1.80;;
20159;SDS011;50187;50.492;12.134;2023-07-02T11:56:44;2.30;;;2.10;;
20159;SDS011;50187;50.492;12.134;2023-07-02T11:59:11;2.57;;;2.37;;
20159;SDS011;50187;50.492;12.134;2023-07-02T12:01:38;2.37;;;2.23;;
20159;SDS011;50187;50.492;12.134;2023-07-02T12:04:05;2.13;;;2.03;;
20159;SDS011;50187;50.492;12.134;2023-07-02T12:06:34;2.70;;;2.23;;
20159;SDS011;50187;50.492;12.134;2023-07-02T12:09:01;2.10;;;1.90;;
20159;SDS011;50187;50.492;12.134;2023-07-02T12:11:27;2.10;;;2.00;;
20159;SDS011;50187;50.492;12.134;2023-07-02T12:13:54;2.17;;;2.07;;
20159;SDS011;50187;50.492;12.134;2023-07-02T12:16:36;2.23;;;2.03;;
20159;SDS011;50187;50.492;12.134;2023-07-02T12:20:08;2.27;;;2.13;;
20159;SDS011;50187;50.492;12.134;2023-07-02T12:22:58;2.00;;;1.90;;
20159;SDS011;50187;50.492;12.134;2023-07-02T12:29:37;3.70;;;2.07;;
20159;SDS011;50187;50.492;12.134;2023-07-02T12:32:10;2.00;;;1.80;;
20159;SDS011;50187;50.492;12.134;2023-07-02T12:34:44;1.77;;;1.67;;
20159;SDS011;50187;50.492;12.134;2023-07-02T12:37:10;2.13;;;2.03;;
20159;SDS011;50187;50.492;12.134;2023-07-02T12:39:37;2.10;;;1.90;;
20159;SDS011;50187;50.492;12.134;2023-07-02T12:42:03;2.53;;;2.33;;
20159;SDS011;50187;50.492;12.134;2023-07-02T12:44:30;2.27;;;2.17;;
20159;SDS011;50187;50.492;12.134;2023-07-02T12:46:57;1.93;;;1.83;;
20159;SDS011;50187;50.492;12.134;2023-07-02T12:49:23;2.10;;;1.90;;
20159;SDS011;50187;50.492;12.134;2023-07-02T12:51:50;2.23;;;2.13;;
20159;SDS011;50187;50.492;12.134;2023-07-02T12:54:16;2.30;;;2.10;;
20159;SDS011;50187;50.492;12.134;2023-07-02T12:56:43;2.23;;;2.03;;
20159;SDS011;50187;50.492;12.134;2023-07-02T12:59:10;2.73;;;2.17;;
20159;SDS011;50187;50.492;12.134;2023-07-02T13:01:36;2.63;;;2.43;;
20159;SDS011;50187;50.492;12.134;2023-07-02T13:04:03;2.20;;;2.10;;
20159;SDS011;50187;50.492;12.134;2023-07-02T13:06:30;2.03;;;1.87;;
20159;SDS011;50187;50.492;12.134;2023-07-02T13:09:00;2.80;;;2.10;;
20159;SDS011;50187;50.492;12.134;2023-07-02T13:11:27;2.70;;;1.93;;
20159;SDS011;50187;50.492;12.134;2023-07-02T13:13:53;2.40;;;2.20;;
20159;SDS011;50187;50.492;12.134;2023-07-02T13:16:20;2.10;;;2.00;;
20159;SDS011;50187;50.492;12.134;2023-07-02T13:18:48;2.10;;;2.00;;
20159;SDS011;50187;50.492;12.134;2023-07-02T13:21:14;2.23;;;2.10;;
20159;SDS011;50187;50.492;12.134;2023-07-02T13:23:45;1.90;;;1.80;;
20159;SDS011;50187;50.492;12.134;2023-07-02T13:26:11;1.90;;;1.80;;
20159;SDS011;50187;50.492;12.134;2023-07-02T13:28:38;2.13;;;2.03;;
20159;SDS011;50187;50.492;12.134;2023-07-02T13:31:05;2.80;;;1.90;;
20159;SDS011;50187;50.492;12.134;2023-07-02T13:33:31;2.03;;;1.93;;
20159;SDS011;50187;50.492;12.134;2023-07-02T13:35:58;2.20;;;2.10;;
20159;SDS011;50187;50.492;12.134;2023-07-02T13:38:24;2.60;;;1.83;;
20159;SDS011;50187;50.492;12.134;2023-07-02T13:40:51;1.90;;;1.80;;
20159;SDS011;50187;50.492;12.134;2023-07-02T13:43:18;1.97;;;1.87;;
20159;SDS011;50187;50.492;12.134;2023-07-02T13:45:45;1.97;;;1.60;;
20159;SDS011;50187;50.492;12.134;2023-07-02T13:48:12;1.90;;;1.80;;
20159;SDS011;50187;50.492;12.134;2023-07-02T13:50:38;2.70;;;2.50;;
20159;SDS011;50187;50.492;12.134;2023-07-02T13:53:05;1.83;;;1.73;;
20159;SDS011;50187;50.492;12.134;2023-07-02T13:55:31;2.27;;;2.07;;
20159;SDS011;50187;50.492;12.134;2023-07-02T13:57:58;2.30;;;2.10;;
20159;SDS011;50187;50.492;12.134;2023-07-02T14:00:26;2.23;;;2.03;;
20159;SDS011;50187;50.492;12.134;2023-07-02T14:02:54;2.40;;;2.20;;
20159;SDS011;50187;50.492;12.134;2023-07-02T14:05:21;2.40;;;2.30;;
20159;SDS011;50187;50.492;12.134;2023-07-02T14:07:48;2.23;;;2.07;;
20159;SDS011;50187;50.492;12.134;2023-07-02T14:10:15;1.70;;;1.60;;
20159;SDS011;50187;50.492;12.134;2023-07-02T14:12:41;2.20;;;2.10;;
20159;SDS011;50187;50.492;12.134;2023-07-02T14:15:09;1.83;;;1.73;;
20159;SDS011;50187;50.492;12.134;2023-07-02T14:17:36;2.27;;;2.17;;
20159;SDS011;50187;50.492;12.134;2023-07-02T14:20:03;2.00;;;1.90;;
20159;SDS011;50187;50.492;12.134;2023-07-02T14:22:30;2.10;;;1.90;;
20159;SDS011;50187;50.492;12.134;2023-07-02T14:24:56;2.03;;;1.93;;
20159;SDS011;50187;50.492;12.134;2023-07-02T14:27:23;1.97;;;1.87;;
20159;SDS011;50187;50.492;12.134;2023-07-02T14:29:50;1.90;;;1.80;;
20159;SDS011;50187;50.492;12.134;2023-07-02T14:32:17;2.10;;;2.00;;
20159;SDS011;50187;50.492;12.134;2023-07-02T14:34:43;2.50;;;2.30;;
20159;SDS011;50187;50.492;12.134;2023-07-02T14:37:10;2.10;;;2.00;;
20159;SDS011;50187;50.492;12.134;2023-07-02T14:39:37;2.00;;;1.90;;
20159;SDS011;50187;50.492;12.134;2023-07-02T14:42:03;2.00;;;1.90;;
20159;SDS011;50187;50.492;12.134;2023-07-02T14:44:32;2.13;;;2.03;;